createdAt,value
2023-04-14T00:01:56.017Z,7.38
2023-04-14T00:07:02.742Z,7.65
2023-04-14T00:12:11.290Z,7.32
2023-04-14T00:17:18.281Z,7.30
2023-04-14T00:22:25.125Z,7.60
2023-04-14T00:27:33.315Z,6.90
2023-04-14T00:32:40.228Z,7.17
2023-04-14T00:37:47.031Z,6.85
2023-04-14T00:42:54.980Z,7.85
2023-04-14T00:48:02.362Z,7.20
2023-04-14T00:53:10.182Z,7.23
2023-04-14T00:58:18.419Z,7.68
2023-04-14T01:03:26.115Z,7.93
2023-04-14T01:08:32.919Z,6.68
2023-04-14T01:13:54.535Z,6.22
2023-04-14T01:19:22.130Z,6.53
2023-04-14T01:25:04.988Z,6.10
2023-04-14T01:30:44.124Z,6.03
2023-04-14T01:35:59.211Z,6.10
2023-04-14T01:41:10.452Z,5.13
2023-04-14T01:46:19.493Z,5.13
2023-04-14T01:51:29.295Z,6.70
2023-04-14T01:56:37.961Z,5.43
2023-04-14T02:01:48.674Z,8.25
2023-04-14T02:07:00.129Z,8.50
2023-04-14T02:12:09.802Z,7.35
2023-04-14T02:17:16.966Z,8.82
2023-04-14T02:22:27.662Z,8.10
2023-04-14T02:27:43.261Z,7.15
2023-04-14T02:32:59.108Z,7.68
2023-04-14T02:38:15.313Z,8.45
2023-04-14T02:43:28.341Z,8.82
2023-04-14T02:48:37.784Z,8.88
2023-04-14T02:53:45.891Z,8.25
2023-04-14T02:59:12.819Z,8.23
2023-04-14T03:04:33.001Z,7.65
2023-04-14T03:09:44.939Z,7.82
2023-04-14T03:14:53.011Z,7.32
2023-04-14T03:20:01.984Z,7.57
2023-04-14T03:25:12.742Z,9.15
2023-04-14T03:30:26.310Z,8.98
2023-04-14T03:35:33.940Z,7.85
2023-04-14T03:40:44.695Z,8.60
2023-04-14T03:45:52.220Z,9.82
2023-04-14T03:51:02.578Z,9.52
2023-04-14T03:56:15.471Z,10.25
2023-04-14T04:01:26.097Z,11.50
2023-04-14T04:06:33.316Z,12.05
2023-04-14T04:11:43.716Z,13.13
2023-04-14T04:16:52.439Z,12.32
2023-04-14T04:22:01.824Z,12.27
2023-04-14T04:27:24.171Z,13.50
2023-04-14T04:32:31.943Z,12.15
2023-04-14T04:37:40.263Z,13.35
2023-04-14T04:42:48.279Z,14.40
2023-04-14T04:47:56.418Z,12.35
2023-04-14T04:53:02.445Z,12.95
2023-04-14T04:58:10.514Z,11.77
2023-04-14T05:03:16.971Z,11.43
2023-04-14T05:08:23.786Z,13.25
2023-04-14T05:13:31.548Z,13.25
2023-04-14T05:18:38.517Z,12.48
2023-04-14T05:23:47.287Z,12.30
2023-04-14T05:28:55.296Z,12.95
2023-04-14T05:34:01.918Z,12.15
2023-04-14T05:39:11.037Z,11.85
2023-04-14T05:44:18.838Z,12.55
2023-04-14T05:49:25.057Z,12.93
2023-04-14T05:54:31.394Z,11.60
2023-04-14T05:59:40.668Z,11.80
2023-04-14T06:04:47.885Z,11.43
2023-04-14T06:09:54.746Z,11.82
2023-04-14T06:15:02.589Z,11.70
2023-04-14T06:20:11.402Z,11.90
2023-04-14T06:25:18.130Z,11.50
2023-04-14T06:30:28.799Z,11.55
2023-04-14T06:35:35.972Z,11.85
2023-04-14T06:40:42.349Z,11.52
2023-04-14T06:45:51.253Z,10.45
2023-04-14T06:50:58.338Z,10.55
2023-04-14T06:56:06.906Z,10.75
2023-04-14T07:01:15.025Z,11.55
2023-04-14T07:06:21.724Z,9.63
2023-04-14T07:11:30.118Z,9.05
2023-04-14T07:16:37.956Z,8.52
2023-04-14T07:21:45.703Z,9.43
2023-04-14T07:26:52.706Z,8.27
2023-04-14T07:32:01.628Z,7.95
2023-04-14T07:37:08.262Z,8.18
2023-04-14T07:42:15.680Z,8.20
2023-04-14T07:47:23.281Z,7.40
2023-04-14T07:52:29.477Z,7.18
2023-04-14T07:57:37.083Z,7.30
2023-04-14T08:02:45.273Z,7.30
2023-04-14T08:07:52.371Z,6.57
2023-04-14T08:13:00.136Z,6.13
2023-04-14T08:18:09.171Z,6.15
2023-04-14T08:23:15.629Z,6.15
2023-04-14T08:28:21.909Z,4.85
2023-04-14T08:33:29.808Z,5.57
2023-04-14T08:38:36.201Z,8.38
2023-04-14T08:43:42.891Z,7.43
2023-04-14T08:48:56.714Z,5.45
2023-04-14T08:54:10.504Z,5.88
2023-04-14T08:59:17.100Z,5.78
2023-04-14T09:04:25.964Z,4.80
2023-04-14T09:14:40.451Z,5.32
2023-04-14T09:20:35.590Z,6.15
2023-04-14T09:25:17.849Z,5.68
2023-04-14T09:30:24.766Z,6.40
2023-04-14T09:35:47.783Z,3.92
2023-04-14T09:40:56.451Z,3.95
2023-04-14T09:46:08.703Z,3.72
2023-04-14T09:51:17.976Z,3.53
2023-04-14T09:56:29.279Z,3.60
2023-04-14T10:01:37.139Z,3.13
2023-04-14T10:06:49.765Z,3.55
2023-04-14T10:12:13.677Z,5.20
2023-04-14T10:17:20.109Z,3.65
2023-04-14T10:22:29.546Z,3.63
2023-04-14T10:27:37.152Z,4.00
2023-04-14T10:32:47.584Z,3.30
2023-04-14T10:37:55.972Z,4.63
2023-04-14T10:43:02.263Z,3.17
2023-04-14T10:48:12.030Z,3.55
2023-04-14T10:53:19.644Z,3.70
2023-04-14T10:58:30.894Z,3.47
2023-04-14T11:03:46.775Z,3.20
2023-04-14T11:08:57.751Z,2.97
2023-04-14T11:14:13.480Z,3.22
2023-04-14T11:19:20.419Z,2.63
2023-04-14T11:24:28.323Z,3.30
2023-04-14T11:29:34.764Z,3.78
2023-04-14T11:34:41.824Z,2.88
2023-04-14T11:39:51.032Z,4.00
2023-04-14T11:50:07.493Z,2.90
2023-04-14T11:55:16.087Z,4.05
2023-04-14T12:00:23.142Z,2.50
2023-04-14T12:05:31.606Z,2.35
2023-04-14T12:10:41.072Z,2.63
2023-04-14T12:15:48.079Z,2.60
2023-04-14T12:20:56.538Z,2.20
2023-04-14T12:26:04.545Z,2.13
2023-04-14T12:31:12.377Z,2.07
2023-04-14T12:36:19.342Z,2.07
2023-04-14T12:41:28.554Z,2.30
2023-04-14T12:46:35.075Z,2.20
2023-04-14T12:51:42.031Z,2.08
2023-04-14T12:56:49.951Z,1.83
2023-04-14T13:01:56.307Z,2.28
2023-04-14T13:07:02.915Z,1.80
2023-04-14T13:12:11.029Z,1.85
2023-04-14T13:17:17.960Z,1.50
2023-04-14T13:22:24.774Z,1.67
2023-04-14T13:27:32.722Z,1.52
2023-04-14T13:32:39.380Z,1.50
2023-04-14T13:37:45.942Z,1.20
2023-04-14T13:42:53.724Z,1.42
2023-04-14T13:48:01.836Z,1.63
2023-04-14T13:53:11.539Z,1.57
2023-04-14T13:58:19.853Z,1.60
2023-04-14T14:03:28.007Z,1.57
2023-04-14T14:08:39.441Z,1.73
2023-04-14T14:13:47.377Z,2.17
2023-04-14T14:18:53.990Z,2.00
2023-04-14T14:24:00.806Z,2.20
2023-04-14T14:29:11.299Z,2.25
2023-04-14T14:34:18.294Z,2.05
2023-04-14T14:39:25.164Z,2.03
2023-04-14T14:44:33.140Z,2.85
2023-04-14T14:49:46.021Z,2.58
2023-04-14T14:54:59.506Z,1.88
2023-04-14T15:00:09.511Z,2.08
2023-04-14T15:05:16.009Z,2.20
2023-04-14T15:10:22.614Z,2.67
2023-04-14T15:15:30.500Z,2.60
2023-04-14T15:20:37.238Z,2.27
2023-04-14T15:25:43.866Z,2.33
2023-04-14T15:30:51.793Z,2.30
2023-04-14T15:35:58.441Z,2.78
2023-04-14T15:41:05.968Z,2.40
2023-04-14T15:46:14.906Z,2.60
2023-04-14T15:56:27.858Z,3.28
2023-04-14T16:01:35.986Z,8.40
2023-04-14T16:06:42.750Z,2.50
2023-04-14T16:11:49.776Z,3.00
2023-04-14T16:17:00.190Z,2.85
2023-04-14T16:22:06.870Z,4.80
2023-04-14T16:27:13.744Z,3.22
2023-04-14T16:32:22.642Z,2.90
2023-04-14T16:37:29.252Z,3.00
2023-04-14T16:42:37.929Z,2.60
2023-04-14T16:47:46.597Z,2.85
2023-04-14T16:58:01.701Z,2.92
2023-04-14T17:03:10.558Z,2.80
2023-04-14T17:08:17.965Z,3.38
2023-04-14T17:13:25.372Z,2.47
2023-04-14T17:18:33.875Z,2.60
2023-04-14T17:23:41.533Z,3.47
2023-04-14T17:28:52.550Z,2.58
2023-04-14T17:34:11.060Z,2.97
2023-04-14T17:39:20.830Z,2.40
2023-04-14T17:44:37.094Z,2.95
2023-04-14T17:49:46.641Z,2.88
2023-04-14T17:55:01.576Z,2.60
2023-04-14T18:00:13.565Z,3.38
2023-04-14T18:05:29.055Z,3.38
2023-04-14T18:10:39.179Z,3.83
2023-04-14T18:15:52.649Z,3.80
2023-04-14T18:21:03.478Z,5.05
2023-04-14T18:31:24.994Z,4.20
2023-04-14T18:36:36.338Z,4.43
2023-04-14T18:41:46.372Z,4.25
2023-04-14T18:46:56.257Z,4.13
2023-04-14T18:52:08.576Z,4.78
2023-04-14T18:57:28.383Z,6.10
2023-04-14T19:02:43.206Z,4.88
2023-04-14T19:07:55.557Z,4.47
2023-04-14T19:13:07.718Z,4.80
2023-04-14T19:18:22.150Z,5.18
2023-04-14T19:23:32.299Z,5.28
2023-04-14T19:28:41.248Z,4.70
2023-04-14T19:33:50.353Z,4.90
2023-04-14T19:39:01.495Z,5.57
2023-04-14T19:44:09.343Z,5.28
2023-04-14T19:49:17.386Z,4.63
2023-04-14T19:54:30.293Z,4.80
2023-04-14T19:59:39.427Z,4.70
2023-04-14T20:04:50.046Z,4.25
2023-04-14T20:10:02.231Z,4.53
2023-04-14T20:15:16.804Z,4.20
2023-04-14T20:20:27.245Z,3.85
2023-04-14T20:25:38.070Z,4.25
2023-04-14T20:30:49.059Z,4.18
2023-04-14T20:35:58.627Z,4.47
2023-04-14T20:41:09.130Z,5.10
2023-04-14T20:46:17.094Z,4.72
2023-04-14T20:51:24.511Z,5.20
2023-04-14T20:56:34.301Z,4.13
2023-04-14T21:01:43.283Z,4.53
2023-04-14T21:06:50.689Z,4.32
2023-04-14T21:12:14.349Z,4.68
2023-04-14T21:17:24.735Z,4.75
2023-04-14T21:22:31.483Z,5.63
2023-04-14T21:27:39.774Z,5.65
2023-04-14T21:32:46.508Z,5.15
2023-04-14T21:37:53.408Z,6.32
2023-04-14T21:43:01.815Z,5.72
2023-04-14T21:48:08.968Z,6.25
2023-04-14T21:53:15.730Z,5.15
2023-04-14T21:58:23.881Z,5.25
2023-04-14T22:03:30.488Z,5.77
2023-04-14T22:08:38.815Z,5.80
2023-04-14T22:13:47.153Z,5.27
2023-04-14T22:18:54.370Z,5.50
2023-04-14T22:24:01.295Z,5.47
2023-04-14T22:29:11.454Z,4.78
2023-04-14T22:34:18.686Z,5.20
2023-04-14T22:39:25.305Z,5.22
2023-04-14T22:44:33.249Z,5.20
2023-04-14T22:49:41.156Z,4.80
2023-04-14T22:54:48.993Z,5.45
2023-04-14T22:59:57.163Z,4.82
2023-04-14T23:05:04.548Z,5.43
2023-04-14T23:10:12.777Z,5.93
2023-04-14T23:15:21.864Z,5.30
2023-04-14T23:25:34.715Z,4.65
2023-04-14T23:38:28.386Z,4.93
2023-04-14T23:43:36.816Z,5.35
2023-04-14T23:48:43.510Z,5.20
2023-04-14T23:53:53.420Z,6.18
2023-04-14T23:59:00.423Z,4.97
